This demonstration page uses our WeatherBlox Daily Observations layout. Learn more.

Left ArrowRight Arrow

41.55636, -103.73856

Hourly Observations for July 13, 2015

Temp ( °F °C ) Dew Point ( °F °C ) Humidity (%) Winds ( mph kmh ) Pressure ( in mb ) Visibility ( mi km ) Precip ( " mm )
12:53 am 00:53 Clear 65 18.3 47 8.3 52 52 W 9 15 29.84 1010 10 16.0934 0 0
1:53 am 01:53 Clear 60 15.6 49 9.4 67 67 SSE 3 6 29.87 1011 10 16.0934 0 0
2:53 am 02:53 Clear 59 15 49 9.4 69 69 N 3 6 29.86 1011 10 16.0934 0 0
3:53 am 03:53 Clear 57 13.9 50 10 78 78 N 8 13 29.89 1012 10 16.0934 0 0
4:53 am 04:53 Clear 59 15 48 8.9 67 67 NNW 8 13 29.89 1012 10 16.0934 0 0
5:53 am 05:53 Sunny 59 15 48 8.9 67 67 NNW 7 11 29.9 1013 10 16.0934 0 0
6:53 am 06:53 Sunny 62 16.7 50 10 65 65 NW 6 9 29.91 1013 10 16.0934 0 0
7:53 am 07:53 Sunny 69 20.6 50 10 51 51 NW 9 15 29.9 1013 10 16.0934 0 0
8:53 am 08:53 Sunny 74 23.3 51 10.6 45 45 WNW 9 15 29.91 1013 10 16.0934 0 0
9:53 am 09:53 Sunny 77 25 49 9.4 37 37 NW 9 15 29.93 1014 10 16.0934 0 0
10:53 am 10:53 Sunny 82 27.8 53 11.7 37 37 NW 7 11 29.91 1013 10 16.0934 0 0
11:53 am 11:53 Sunny 84 28.9 49 9.4 30 30 SSW 5 7 29.89 1012 10 16.0934 0 0
12:53 pm 12:53 Sunny 86 30 51 10.6 30 30 VRB 6 9 29.88 1012 10 16.0934 0 0
1:53 pm 13:53 Sunny 90 32.2 49 9.4 24 24 W 6 9 29.86 1011 10 16.0934 0 0
2:53 pm 14:53 Sunny 92 33.3 41 5 17 17 VRB 5 7 29.84 1011 10 16.0934 0 0
3:53 pm 15:53 Sunny 93 33.9 45 7.2 19 19 WNW 6 9 29.83 1010 10 16.0934 0 0
4:53 pm 16:53 Sunny 92 33.3 43 6.1 18 18 SW 5 7 29.8 1009 10 16.0934 0 0
5:53 pm 17:53 Sunny 88 31.1 48 8.9 25 25 S 9 15 29.79 1009 10 16.0934 0 0
6:53 pm 18:53 Sunny with Light Rain 82 27.8 51 10.6 34 34 S 13 20 29.8 1009 10 16.0934 0 0.0254
7:53 pm 19:53 Sunny with Light Rain 78 25.6 51 10.6 39 39 S 12 19 29.82 1010 10 16.0934 0 0.0254
8:53 pm 20:53 Mostly Clear with Light Rain 77 25 51 10.6 40 40 S 3 6 29.84 1010 10 16.0934 0 0.0254
9:53 pm 21:53 Clear with Light Rain 75 23.9 52 11.1 45 45 SSE 5 7 29.82 1010 10 16.0934 0 0.0254
10:53 pm 22:53 Clear with Light Rain 77 25 50 10 39 39 VRB 3 6 29.8 1009 10 16.0934 0 0.0254
11:53 pm 23:53 Clear with Light Rain 72 22.2 52 11.1 50 50 Calm 29.79 1009 10 16.0934 0 0.0254

Powered by AerisWeather